Time;durP1;ratioP1;P1;durP2;ratioP2;P2;SDS_P1;SDS_P2;PMS_P1;PMS_P2;Temp;Humidity;BMP_temperature;BMP_pressure;BME280_temperature;BME280_humidity;BME280_pressure;Samples;Min_cycle;Max_cycle;Signal;HPM_P1;HPM_P2
2022/12/10 07:57:56;;;;;;;17.08;12.77;;;13.50;99.90;;;;;;5111298;27;20300;-66
2022/12/10 08:00:21;;;;;;;15.25;12.00;;;14.10;99.90;;;;;;5091010;28;20107;-67
2022/12/10 08:02:47;;;;;;;13.65;11.07;;;14.40;99.90;;;;;;5089495;28;20020;-67
2022/12/10 08:05:13;;;;;;;11.63;10.20;;;14.60;99.90;;;;;;5090826;28;20055;-67
2022/12/10 08:07:38;;;;;;;12.05;10.77;;;14.80;99.90;;;;;;5089533;28;20436;-67
2022/12/10 08:10:05;;;;;;;11.77;10.57;;;15.00;99.90;;;;;;5090572;28;20051;-66
2022/12/10 08:12:30;;;;;;;12.00;10.10;;;15.30;99.90;;;;;;5090644;28;20078;-67
2022/12/10 08:14:56;;;;;;;26.77;19.30;;;15.60;99.90;;;;;;5090768;28;20024;-67
2022/12/10 08:17:21;;;;;;;19.40;15.45;;;15.90;99.90;;;;;;5089288;28;20085;-67
2022/12/10 08:19:47;;;;;;;20.70;15.55;;;16.30;99.90;;;;;;5090724;28;20073;-67
2022/12/10 08:22:13;;;;;;;21.65;15.68;;;16.40;99.90;;;;;;5090561;28;20044;-67
2022/12/10 08:24:38;;;;;;;15.32;12.00;;;16.40;99.90;;;;;;5090486;28;20505;-66
2022/12/10 08:27:04;;;;;;;14.18;10.35;;;16.30;99.90;;;;;;5088925;28;20020;-67
2022/12/10 08:29:30;;;;;;;11.98;10.48;;;16.20;99.90;;;;;;5090420;28;20029;-67
2022/12/10 08:31:55;;;;;;;10.82;8.77;;;16.20;99.90;;;;;;5089053;28;20115;-67
2022/12/10 08:34:21;;;;;;;9.00;7.38;;;16.10;99.90;;;;;;5090258;28;20020;-67
2022/12/10 08:36:47;;;;;;;8.25;7.45;;;16.20;99.90;;;;;;5088900;28;20032;-67
2022/12/10 08:39:16;;;;;;;7.47;6.63;;;16.20;99.90;;;;;;5090217;28;20020;-67
2022/12/10 08:41:44;;;;;;;8.38;6.38;;;16.20;99.90;;;;;;5089958;28;20048;-67
2022/12/10 08:44:11;;;;;;;7.97;7.13;;;16.20;99.90;;;;;;5088923;28;20466;-67
2022/12/10 08:46:37;;;;;;;7.75;6.57;;;16.20;99.90;;;;;;5090090;28;20031;-67
2022/12/10 08:49:03;;;;;;;8.15;7.03;;;16.30;99.90;;;;;;5088733;28;20016;-67
2022/12/10 08:51:29;;;;;;;11.07;8.70;;;16.30;99.90;;;;;;5089973;28;20476;-67
2022/12/10 08:53:55;;;;;;;11.15;8.60;;;16.20;99.90;;;;;;5088609;28;20059;-67
2022/12/10 08:56:21;;;;;;;8.82;7.80;;;15.90;99.90;;;;;;5080269;28;20049;-67
2022/12/10 08:58:46;;;;;;;10.23;8.55;;;16.00;99.90;;;;;;5069451;28;20025;-67
2022/12/10 09:01:15;;;;;;;9.38;8.32;;;16.10;99.90;;;;;;5068197;28;20025;-67
2022/12/10 09:03:41;;;;;;;8.63;7.40;;;16.20;99.90;;;;;;5069364;28;20493;-67
2022/12/10 09:06:10;;;;;;;9.60;7.43;;;16.20;99.90;;;;;;5069457;28;20078;-67
2022/12/10 09:08:36;;;;;;;8.15;6.95;;;16.20;99.90;;;;;;5058535;28;20079;-67
2022/12/10 09:11:17;;;;;;;8.93;6.78;;;16.20;99.90;;;;;;5054751;28;20021;-66
2022/12/10 09:13:43;;;;;;;6.57;5.05;;;16.20;99.90;;;;;;5054957;28;20025;-66
2022/12/10 09:16:09;;;;;;;9.55;6.60;;;16.20;99.90;;;;;;5055941;28;20033;-68
2022/12/10 09:18:35;;;;;;;8.38;5.97;;;16.20;99.90;;;;;;5056039;28;20564;-67
2022/12/10 09:21:05;;;;;;;8.90;6.28;;;16.20;99.90;;;;;;5054646;28;20052;-67
2022/12/10 09:23:31;;;;;;;6.63;5.45;;;16.10;99.90;;;;;;5055920;28;20025;-67
2022/12/10 09:25:56;;;;;;;7.22;5.20;;;16.20;99.90;;;;;;5054295;28;20029;-67
2022/12/10 09:28:22;;;;;;;8.43;5.25;;;16.30;99.90;;;;;;5055856;28;20032;-67
2022/12/10 09:30:58;;;;;;;8.48;5.45;;;16.40;99.90;;;;;;5054458;28;20108;-67
2022/12/10 09:33:25;;;;;;;6.40;4.93;;;16.40;99.90;;;;;;5055708;28;20076;-67
2022/12/10 09:35:51;;;;;;;5.50;4.90;;;16.50;99.90;;;;;;5055662;28;20029;-67
2022/12/10 09:38:17;;;;;;;5.47;4.97;;;16.70;99.90;;;;;;5054427;28;20067;-67
2022/12/10 09:41:03;;;;;;;6.30;4.70;;;16.70;99.90;;;;;;5054132;28;20055;-67
2022/12/10 09:43:57;;;;;;;6.75;3.97;;;16.70;99.90;;;;;;5055591;28;20021;-67
2022/12/10 09:46:35;;;;;;;6.88;5.30;;;16.90;99.90;;;;;;5054298;28;20031;-67
2022/12/10 09:49:16;;;;;;;8.45;7.30;;;17.10;99.90;;;;;;5055312;28;20043;-67
2022/12/10 09:51:42;;;;;;;7.28;6.38;;;17.40;99.90;;;;;;5054112;28;20063;-67
2022/12/10 09:54:45;;;;;;;10.77;7.35;;;17.80;99.90;;;;;;5055176;28;20048;-67
2022/12/10 09:57:27;;;;;;;8.75;7.63;;;18.00;99.90;;;;;;5066001;28;20052;-67
2022/12/10 09:59:53;;;;;;;7.18;6.47;;;18.10;99.90;;;;;;5075217;28;20032;-67
2022/12/10 10:02:25;;;;;;;7.40;6.28;;;18.50;99.90;;;;;;5075641;28;20043;-68
2022/12/10 10:04:54;;;;;;;6.60;5.90;;;18.70;99.90;;;;;;5057132;28;20544;-67
2022/12/10 10:07:26;;;;;;;6.30;5.43;;;18.90;99.90;;;;;;5075142;28;20032;-67
2022/12/10 10:10:00;;;;;;;6.28;4.47;;;19.00;99.90;;;;;;5056992;28;20482;-67
2022/12/10 10:12:31;;;;;;;7.10;4.60;;;19.20;99.90;;;;;;5075048;28;20021;-67
2022/12/10 10:14:57;;;;;;;5.57;4.03;;;19.20;99.90;;;;;;5074930;28;20409;-68
2022/12/10 10:17:36;;;;;;;4.38;3.88;;;19.00;99.90;;;;;;5074706;28;20032;-67
2022/12/10 10:20:02;;;;;;;2.40;2.10;;;19.20;99.90;;;;;;5055873;28;20027;-68
2022/12/10 10:22:29;;;;;;;4.22;2.30;;;19.50;99.90;;;;;;5074692;28;20024;-67
2022/12/10 10:24:56;;;;;;;2.90;1.55;;;19.80;99.90;;;;;;5074671;28;20133;-67
2022/12/10 10:27:26;;;;;;;5.05;2.15;;;19.80;99.90;;;;;;5074584;28;20024;-67
2022/12/10 10:29:54;;;;;;;2.67;1.98;;;19.90;99.90;;;;;;5056795;28;20433;-67
2022/12/10 10:32:48;;;;;;;2.55;2.00;;;19.80;99.90;;;;;;5074452;28;20066;-67
2022/12/10 10:35:29;;;;;;;1.98;1.50;;;20.00;98.40;;;;;;5056576;28;20060;-67
2022/12/10 10:38:07;;;;;;;1.90;1.60;;;19.90;99.90;;;;;;5074150;28;20035;-67
2022/12/10 10:40:41;;;;;;;1.85;1.50;;;19.90;99.10;;;;;;5074246;28;20159;-67
2022/12/10 10:43:24;;;;;;;2.10;1.90;;;19.80;99.90;;;;;;5056335;28;20059;-68
2022/12/10 10:46:09;;;;;;;3.15;1.60;;;19.90;99.90;;;;;;5056358;28;20428;-67
2022/12/10 10:48:35;;;;;;;3.88;3.00;;;20.00;99.90;;;;;;5056400;28;20061;-69
2022/12/10 10:51:15;;;;;;;3.78;2.50;;;20.00;99.90;;;;;;5056319;28;20455;-69
2022/12/10 10:53:54;;;;;;;4.97;3.60;;;19.90;97.90;;;;;;5074180;28;20078;-67
2022/12/10 10:56:25;;;;;;;4.22;3.05;;;19.80;97.80;;;;;;5073669;28;20033;-67
2022/12/10 10:59:28;;;;;;;3.53;3.22;;;19.70;99.90;;;;;;5074066;28;20029;-67
2022/12/10 11:01:58;;;;;;;4.00;3.60;;;19.60;99.90;;;;;;5074412;28;20020;-67
2022/12/10 11:04:28;;;;;;;5.63;3.70;;;19.50;99.90;;;;;;5073982;28;20021;-69
2022/12/10 11:06:59;;;;;;;4.65;3.80;;;19.40;99.90;;;;;;5073687;28;20021;-67
2022/12/10 11:09:28;;;;;;;5.45;3.40;;;19.40;99.90;;;;;;5073943;28;20021;-67
2022/12/10 11:12:04;;;;;;;4.28;3.65;;;19.40;99.90;;;;;;5055926;28;20113;-67
2022/12/10 11:14:49;;;;;;;3.90;3.50;;;19.50;99.90;;;;;;5055874;28;20034;-67
2022/12/10 11:17:14;;;;;;;4.25;3.33;;;19.60;99.90;;;;;;5073785;28;20390;-67
2022/12/10 11:19:55;;;;;;;3.75;3.35;;;19.80;99.90;;;;;;5073658;28;20127;-67
2022/12/10 11:22:27;;;;;;;4.00;3.60;;;19.90;99.90;;;;;;5073440;28;20025;-67
2022/12/10 11:24:52;;;;;;;4.10;3.70;;;19.90;99.90;;;;;;5055737;28;20028;-67
2022/12/10 11:27:31;;;;;;;3.70;3.40;;;20.00;99.90;;;;;;5074090;28;20385;-67
2022/12/10 11:30:05;;;;;;;4.22;3.55;;;20.10;99.90;;;;;;5073621;28;20028;-67
2022/12/10 11:32:55;;;;;;;5.97;3.40;;;20.20;99.30;;;;;;5055471;28;20408;-67
2022/12/10 11:35:48;;;;;;;5.30;3.35;;;20.20;98.40;;;;;;5073353;28;20016;-66
2022/12/10 11:38:32;;;;;;;3.40;3.10;;;20.20;99.60;;;;;;5073560;28;20032;-66
2022/12/10 11:41:04;;;;;;;3.38;2.92;;;20.20;98.40;;;;;;5073497;28;20150;-67
2022/12/10 11:43:48;;;;;;;4.13;2.75;;;20.20;99.90;;;;;;5073501;28;20017;-67
2022/12/10 11:46:19;;;;;;;3.08;2.58;;;20.20;96.20;;;;;;5073343;28;20036;-67
2022/12/10 11:49:00;;;;;;;2.75;2.53;;;20.10;97.10;;;;;;5055521;28;20013;-67
2022/12/10 11:52:00;;;;;;;2.20;2.00;;;20.00;98.50;;;;;;5073260;28;20040;-66
2022/12/10 11:54:49;;;;;;;4.95;2.50;;;19.90;97.90;;;;;;5073223;28;20028;-67
2022/12/10 11:57:38;;;;;;;2.30;1.90;;;19.90;98.70;;;;;;5072778;28;20074;-67
2022/12/10 12:00:23;;;;;;;4.43;2.70;;;19.90;99.90;;;;;;5073394;28;20020;-67
2022/12/10 12:03:02;;;;;;;6.28;3.80;;;19.80;97.80;;;;;;5073177;28;20017;-67
2022/12/10 12:05:45;;;;;;;6.60;4.57;;;19.80;99.50;;;;;;5073089;28;20025;-67
2022/12/10 12:08:33;;;;;;;6.88;4.88;;;19.70;99.10;;;;;;5055354;28;20572;-67
2022/12/10 12:11:36;;;;;;;14.75;8.80;;;19.60;99.90;;;;;;5047636;28;20115;-67
2022/12/10 12:14:13;;;;;;;7.60;5.75;;;19.50;99.90;;;;;;5046196;28;20048;-67
2022/12/10 12:16:54;;;;;;;7.93;5.32;;;19.50;99.90;;;;;;5066168;28;20455;-67
2022/12/10 12:19:31;;;;;;;5.65;4.22;;;19.60;99.90;;;;;;5064057;28;20365;-66
2022/12/10 12:22:04;;;;;;;5.57;4.18;;;19.60;99.90;;;;;;5051853;28;20033;-67
2022/12/10 12:24:39;;;;;;;7.35;3.65;;;19.60;99.90;;;;;;5073108;28;20029;-67
2022/12/10 12:27:30;;;;;;;4.65;3.53;;;19.60;99.90;;;;;;5073176;28;20078;-69
2022/12/10 12:30:06;;;;;;;4.82;3.00;;;19.60;99.90;;;;;;5051241;28;20060;-67
2022/12/10 12:32:47;;;;;;;4.97;2.85;;;19.50;99.90;;;;;;5072842;28;20027;-67
2022/12/10 12:35:21;;;;;;;4.93;2.92;;;19.50;99.90;;;;;;5072036;28;20248;-67
2022/12/10 12:38:21;;;;;;;2.80;2.47;;;19.40;99.90;;;;;;5070898;28;20060;-67
2022/12/10 12:41:04;;;;;;;3.13;2.20;;;19.40;99.90;;;;;;5065275;28;20320;-67
2022/12/10 12:43:36;;;;;;;3.78;1.88;;;19.40;99.90;;;;;;5071135;28;20016;-67
2022/12/10 12:46:09;;;;;;;2.10;1.90;;;19.30;99.90;;;;;;5073498;28;20023;-67
2022/12/10 12:48:46;;;;;;;2.70;2.00;;;19.30;99.90;;;;;;5074875;28;20013;-66
2022/12/10 12:51:23;;;;;;;2.70;1.48;;;19.20;99.90;;;;;;5057635;28;20025;-67
2022/12/10 12:53:48;;;;;;;4.43;2.10;;;19.20;99.90;;;;;;5075895;28;20027;-66
2022/12/10 12:56:29;;;;;;;4.93;1.98;;;19.10;99.90;;;;;;5075604;28;20398;-67
2022/12/10 12:59:22;;;;;;;6.05;2.20;;;19.10;99.90;;;;;;5055381;28;20385;-67
2022/12/10 13:01:58;;;;;;;2.92;1.77;;;19.00;99.90;;;;;;5073313;28;20025;-69
2022/12/10 13:04:25;;;;;;;5.75;4.03;;;18.90;99.90;;;;;;5076372;28;20070;-69
2022/12/10 13:07:10;;;;;;;5.82;4.97;;;18.90;99.90;;;;;;5075153;28;20149;-67
2022/12/10 13:09:50;;;;;;;8.05;6.03;;;18.80;99.90;;;;;;5075806;28;20025;-67
2022/12/10 13:12:29;;;;;;;6.05;5.45;;;18.80;99.90;;;;;;5075954;28;20020;-67
2022/12/10 13:14:58;;;;;;;7.93;7.05;;;18.80;99.90;;;;;;5075805;28;20374;-67
2022/12/10 13:17:34;;;;;;;8.68;7.78;;;18.80;99.90;;;;;;5074105;28;20028;-67
2022/12/10 13:20:29;;;;;;;8.70;7.35;;;18.80;99.90;;;;;;5074157;28;20024;-67
2022/12/10 13:23:04;;;;;;;7.72;6.93;;;18.70;99.90;;;;;;5074061;28;20029;-67
2022/12/10 13:25:54;;;;;;;12.65;10.35;;;18.70;99.90;;;;;;5056392;28;20027;-67
2022/12/10 13:28:35;;;;;;;15.48;10.50;;;18.60;99.90;;;;;;5062310;28;20039;-67
2022/12/10 13:31:12;;;;;;;9.40;8.48;;;18.50;99.90;;;;;;5074996;28;20021;-67
2022/12/10 13:34:19;;;;;;;9.23;8.18;;;18.40;99.90;;;;;;5057861;28;20027;-67
2022/12/10 13:36:45;;;;;;;8.60;7.70;;;18.40;99.90;;;;;;5057670;28;20043;-67
2022/12/10 13:39:21;;;;;;;11.95;9.60;;;18.40;99.90;;;;;;5057827;28;20020;-67
2022/12/10 13:45:22;;;;;;;10.88;8.98;;;18.40;99.90;;;;;;5075584;28;20036;-67
2022/12/10 13:47:53;;;;;;;39.67;31.50;;;18.40;99.90;;;;;;5075462;28;20016;-67
2022/12/10 13:50:38;;;;;;;24.65;22.05;;;18.30;99.90;;;;;;5075631;28;20043;-67
2022/12/10 13:53:16;;;;;;;19.35;17.30;;;18.20;99.90;;;;;;5057380;28;20021;-67
2022/12/10 13:56:15;;;;;;;19.80;17.63;;;18.30;99.90;;;;;;5056888;28;20020;-67
2022/12/10 13:58:54;;;;;;;19.27;16.55;;;18.30;99.90;;;;;;5075480;28;20020;-67
2022/12/10 14:01:25;;;;;;;19.77;16.65;;;18.30;99.90;;;;;;5075149;28;20029;-67
2022/12/10 14:04:19;;;;;;;20.75;16.17;;;18.20;99.90;;;;;;5057119;28;20035;-67
2022/12/10 14:06:45;;;;;;;17.70;15.82;;;18.20;99.90;;;;;;5075158;28;20397;-67
2022/12/10 14:09:13;;;;;;;20.45;16.13;;;18.10;99.90;;;;;;5074953;28;20432;-67
2022/12/10 14:11:48;;;;;;;33.63;24.90;;;18.10;99.90;;;;;;5074965;28;20095;-67
2022/12/10 14:14:22;;;;;;;41.05;31.83;;;18.10;99.90;;;;;;5074835;28;20039;-67
2022/12/10 14:16:48;;;;;;;58.85;42.53;;;18.00;99.90;;;;;;5074779;28;20081;-67
2022/12/10 14:19:16;;;;;;;127.85;87.70;;;18.00;99.90;;;;;;5074866;28;20100;-67
2022/12/10 14:21:43;;;;;;;97.60;68.78;;;18.00;99.90;;;;;;5074700;28;20016;-67
2022/12/10 14:24:49;;;;;;;76.05;57.58;;;17.80;99.90;;;;;;5074718;28;20021;-66
2022/12/10 14:27:24;;;;;;;72.88;51.53;;;17.80;99.90;;;;;;4974125;28;20528;-66
2022/12/10 14:29:52;;;;;;;69.82;49.58;;;17.80;99.90;;;;;;4973878;28;20023;-67
2022/12/10 14:32:30;;;;;;;60.20;45.28;;;17.80;99.90;;;;;;5012990;28;20029;-67
2022/12/10 14:34:57;;;;;;;59.78;44.65;;;17.80;99.90;;;;;;5056453;28;20411;-67
2022/12/10 14:37:30;;;;;;;67.43;49.45;;;17.70;99.90;;;;;;5074198;28;20028;-69
2022/12/10 14:39:56;;;;;;;61.78;48.13;;;17.70;99.90;;;;;;5056942;28;20024;-67
2022/12/10 14:42:23;;;;;;;73.15;55.08;;;17.60;99.90;;;;;;5056598;28;20021;-67
2022/12/10 14:44:59;;;;;;;66.47;52.70;;;17.60;99.90;;;;;;5074062;28;20020;-67
2022/12/10 14:47:25;;;;;;;59.75;48.35;;;17.70;99.90;;;;;;5074293;28;20486;-67
2022/12/10 14:49:54;;;;;;;55.28;44.38;;;17.60;99.90;;;;;;5074202;28;20017;-67
2022/12/10 14:52:31;;;;;;;57.15;45.28;;;17.60;99.90;;;;;;5056343;28;20036;-66
2022/12/10 14:54:57;;;;;;;55.50;46.30;;;17.50;99.90;;;;;;5074174;28;20046;-67
2022/12/10 14:57:33;;;;;;;39.80;32.58;;;17.40;99.90;;;;;;5073179;28;20045;-67
2022/12/10 15:00:07;;;;;;;33.17;24.75;;;17.30;99.90;;;;;;5056068;28;20023;-67
2022/12/10 15:02:41;;;;;;;23.35;18.48;;;17.10;99.90;;;;;;5056070;28;20112;-67
2022/12/10 15:05:20;;;;;;;22.08;18.90;;;17.00;99.90;;;;;;5055859;28;20378;-66
2022/12/10 15:08:17;;;;;;;30.13;25.92;;;16.90;99.90;;;;;;5073793;28;20086;-67
2022/12/10 15:10:45;;;;;;;25.95;22.23;;;16.60;99.90;;;;;;5065899;28;20516;-67
2022/12/10 15:13:18;;;;;;;22.63;19.45;;;16.20;99.90;;;;;;5073678;28;20017;-67
2022/12/10 15:15:48;;;;;;;16.73;14.93;;;15.90;99.90;;;;;;5056090;28;20474;-67
2022/12/10 15:18:37;;;;;;;16.70;14.73;;;15.60;99.90;;;;;;5073854;28;20029;-67
2022/12/10 15:21:13;;;;;;;13.65;12.25;;;15.50;99.90;;;;;;5055743;28;20025;-67
2022/12/10 15:23:40;;;;;;;17.48;15.07;;;14.80;99.90;;;;;;5055656;28;20423;-66
2022/12/10 15:26:25;;;;;;;13.15;11.85;;;14.70;99.90;;;;;;5055699;28;20051;-67
2022/12/10 15:28:52;;;;;;;14.35;12.48;;;14.50;99.90;;;;;;5055390;28;20490;-67
2022/12/10 15:31:26;;;;;;;14.10;12.70;;;14.50;99.90;;;;;;5073657;28;20359;-67
2022/12/10 15:33:55;;;;;;;;;;;14.30;99.90;;;;;;5055962;28;20111;-67
2022/12/10 15:36:40;;;;;;;16.90;15.07;;;14.30;99.90;;;;;;5055412;28;19919;-67
2022/12/10 15:39:22;;;;;;;12.90;10.75;;;14.30;99.90;;;;;;5055469;28;20032;-67
2022/12/10 15:41:58;;;;;;;17.63;15.70;;;14.30;99.90;;;;;;5073137;28;20035;-67
2022/12/10 15:44:29;;;;;;;20.48;17.08;;;14.00;99.90;;;;;;5055476;28;20056;-67
2022/12/10 15:47:13;;;;;;;22.13;16.33;;;13.80;99.90;;;;;;5055324;28;20477;-67
2022/12/10 15:49:38;;;;;;;19.05;15.02;;;13.70;99.90;;;;;;5055398;28;20119;-67
2022/12/10 15:52:05;;;;;;;15.82;11.23;;;13.40;99.90;;;;;;5055270;28;20116;-67
2022/12/10 15:54:37;;;;;;;11.95;10.70;;;13.50;99.90;;;;;;5055371;28;20020;-67
2022/12/10 15:57:16;;;;;;;24.05;21.15;;;13.60;99.90;;;;;;5054754;28;20456;-66
2022/12/10 15:59:44;;;;;;;16.35;14.65;;;13.50;99.90;;;;;;5073176;28;20044;-67
2022/12/10 16:02:26;;;;;;;11.45;9.80;;;13.50;99.90;;;;;;5055383;28;20035;-66
2022/12/10 16:04:52;;;;;;;8.18;7.35;;;13.50;99.90;;;;;;5073102;28;20108;-67
2022/12/10 16:07:20;;;;;;;7.85;7.05;;;13.50;99.90;;;;;;5073192;28;20035;-67
2022/12/10 16:09:46;;;;;;;7.47;6.70;;;13.50;99.90;;;;;;5073351;28;20428;-66
2022/12/10 16:12:14;;;;;;;7.18;6.47;;;13.40;99.90;;;;;;5073028;28;20050;-66
2022/12/10 16:14:52;;;;;;;8.60;7.47;;;13.50;99.90;;;;;;5073240;28;20021;-66
2022/12/10 16:17:19;;;;;;;8.45;7.10;;;13.30;99.90;;;;;;5055067;28;20037;-67
2022/12/10 16:19:45;;;;;;;10.40;9.30;;;13.20;99.90;;;;;;5077134;28;20020;-66
2022/12/10 16:22:10;;;;;;;10.05;8.48;;;13.10;99.90;;;;;;5077052;28;20024;-67
2022/12/10 16:24:36;;;;;;;10.93;9.00;;;13.10;99.90;;;;;;5059086;28;20027;-66
2022/12/10 16:27:15;;;;;;;11.18;9.40;;;13.20;99.90;;;;;;5058797;28;20052;-66
2022/12/10 16:29:42;;;;;;;11.45;10.27;;;13.30;99.90;;;;;;5058992;28;20017;-66
2022/12/10 16:32:12;;;;;;;10.45;8.48;;;13.20;99.90;;;;;;5058932;28;20458;-66
2022/12/10 16:34:38;;;;;;;10.90;9.02;;;13.20;99.90;;;;;;5076879;28;20021;-67
2022/12/10 16:37:05;;;;;;;10.50;9.00;;;13.20;99.90;;;;;;5058779;28;20033;-67
2022/12/10 16:39:31;;;;;;;17.75;14.65;;;13.20;99.90;;;;;;5076493;28;20028;-67
2022/12/10 16:41:57;;;;;;;18.48;14.35;;;13.30;99.90;;;;;;5076826;28;20088;-67
2022/12/10 16:44:22;;;;;;;22.98;16.15;;;13.10;99.90;;;;;;5058727;28;20060;-66
2022/12/10 16:46:48;;;;;;;23.20;18.23;;;13.00;99.90;;;;;;5058531;28;20111;-66
2022/12/10 16:49:14;;;;;;;19.50;15.63;;;12.80;99.90;;;;;;5076558;28;20024;-69
2022/12/10 16:51:41;;;;;;;17.38;13.38;;;12.60;99.90;;;;;;5058695;28;20363;-66
2022/12/10 16:54:13;;;;;;;15.77;13.35;;;12.50;99.90;;;;;;5076218;28;20035;-67
2022/12/10 16:56:39;;;;;;;16.88;12.40;;;12.60;99.90;;;;;;5076003;28;20090;-66
2022/12/10 16:59:04;;;;;;;12.07;10.73;;;12.70;99.90;;;;;;5076379;28;20025;-66
2022/12/10 17:01:30;;;;;;;15.30;12.68;;;12.70;99.90;;;;;;5058295;28;20539;-67
2022/12/10 17:03:58;;;;;;;16.42;12.73;;;12.20;99.90;;;;;;5076392;28;20028;-69
2022/12/10 17:06:24;;;;;;;18.95;15.38;;;12.00;99.90;;;;;;5076349;28;20032;-66
2022/12/10 17:08:50;;;;;;;20.58;16.42;;;12.00;99.90;;;;;;5076044;28;20020;-66
2022/12/10 17:14:09;;;;;;;14.98;13.20;;;12.00;99.90;;;;;;5076428;28;20031;-66
2022/12/10 17:16:35;;;;;;;21.45;16.02;;;12.20;99.90;;;;;;5058212;28;20033;-66
2022/12/10 17:19:00;;;;;;;30.55;22.48;;;12.20;99.90;;;;;;5076123;28;20031;-67
2022/12/10 17:21:26;;;;;;;31.77;23.58;;;12.20;99.90;;;;;;5076051;28;20059;-66
2022/12/10 17:23:52;;;;;;;30.60;22.27;;;12.10;99.90;;;;;;5075521;28;20020;-65
2022/12/10 17:26:27;;;;;;;27.65;20.17;;;11.80;99.90;;;;;;5076056;28;20052;-69
2022/12/10 17:28:58;;;;;;;32.80;23.88;;;11.90;99.90;;;;;;5057379;28;20504;-67
2022/12/10 17:31:25;;;;;;;41.72;27.90;;;11.90;99.90;;;;;;5057761;28;20023;-66
2022/12/10 17:33:50;;;;;;;26.55;19.33;;;11.70;99.90;;;;;;5057833;28;20028;-66
2022/12/10 17:36:16;;;;;;;23.15;17.55;;;11.90;99.90;;;;;;5057578;28;20500;-66
2022/12/10 17:38:42;;;;;;;15.93;12.63;;;11.90;99.90;;;;;;5057710;28;20561;-66
2022/12/10 17:41:11;;;;;;;15.30;12.32;;;12.00;99.90;;;;;;5057578;28;20021;-66
2022/12/10 17:43:36;;;;;;;14.55;11.18;;;12.00;99.90;;;;;;5075453;28;20029;-67
2022/12/10 17:46:03;;;;;;;15.20;12.25;;;11.90;99.90;;;;;;5075668;28;20104;-67
2022/12/10 17:48:29;;;;;;;17.42;13.73;;;12.00;99.90;;;;;;5075508;28;20021;-67
2022/12/10 17:50:55;;;;;;;15.45;12.70;;;11.70;99.90;;;;;;5057617;28;20023;-67
2022/12/10 17:53:20;;;;;;;16.42;13.30;;;11.70;99.90;;;;;;5075177;28;20025;-66
2022/12/10 17:55:58;;;;;;;16.40;12.75;;;11.80;99.90;;;;;;5075040;28;20091;-66
2022/12/10 17:58:24;;;;;;;26.95;18.92;;;11.90;99.90;;;;;;5075286;28;20028;-67
2022/12/10 18:00:51;;;;;;;34.97;24.58;;;11.80;99.90;;;;;;5075528;28;20490;-67
2022/12/10 18:03:17;;;;;;;40.05;25.58;;;11.50;99.90;;;;;;5075271;28;20027;-66
2022/12/10 18:05:43;;;;;;;35.75;23.58;;;11.30;99.90;;;;;;5075008;28;20016;-66
2022/12/10 18:08:14;;;;;;;34.58;24.33;;;11.50;99.90;;;;;;5074803;28;20532;-66
2022/12/10 18:10:40;;;;;;;29.23;21.10;;;11.70;99.90;;;;;;5075059;28;20146;-67
2022/12/10 18:13:06;;;;;;;26.80;18.15;;;11.70;99.90;;;;;;5057078;28;20052;-66
2022/12/10 18:15:31;;;;;;;25.30;17.50;;;11.60;99.90;;;;;;5074896;28;20025;-67
2022/12/10 18:17:58;;;;;;;26.17;18.80;;;11.60;99.90;;;;;;5074788;28;20028;-66
2022/12/10 18:20:37;;;;;;;18.80;14.30;;;11.70;99.90;;;;;;5074879;28;20031;-66
2022/12/10 18:23:05;;;;;;;17.02;12.38;;;11.50;99.90;;;;;;5056727;28;20028;-66
2022/12/10 18:25:31;;;;;;;25.27;17.15;;;11.60;99.90;;;;;;5056900;28;20363;-66
2022/12/10 18:28:03;;;;;;;17.55;12.45;;;11.60;99.90;;;;;;5074683;28;20055;-66
2022/12/10 18:30:30;;;;;;;14.50;10.27;;;11.50;99.90;;;;;;5056741;28;20027;-66
2022/12/10 18:32:56;;;;;;;11.38;9.07;;;11.50;99.90;;;;;;5074872;28;20070;-66
2022/12/10 18:35:22;;;;;;;12.98;9.50;;;11.60;99.90;;;;;;5074185;28;20024;-66
2022/12/10 18:37:47;;;;;;;13.93;9.75;;;11.30;99.90;;;;;;5056512;28;20020;-66
2022/12/10 18:40:18;;;;;;;13.13;10.70;;;11.20;99.90;;;;;;5055924;28;20064;-69
2022/12/10 18:42:43;;;;;;;21.98;16.60;;;11.40;99.90;;;;;;5074249;28;20074;-67
2022/12/10 18:45:10;;;;;;;26.27;18.33;;;11.40;99.90;;;;;;5074364;28;20024;-66
2022/12/10 18:47:36;;;;;;;22.23;17.20;;;11.40;99.90;;;;;;5056360;28;20032;-68
2022/12/10 18:50:02;;;;;;;21.95;16.63;;;11.50;99.90;;;;;;5056123;28;20021;-68
2022/12/10 18:52:28;;;;;;;22.95;18.65;;;11.50;99.90;;;;;;5074117;28;20040;-69
2022/12/10 18:54:53;;;;;;;20.85;16.05;;;11.50;99.90;;;;;;5074290;28;20059;-69
2022/12/10 18:57:19;;;;;;;23.98;19.65;;;11.60;99.90;;;;;;5055806;28;20041;-69
2022/12/10 18:59:45;;;;;;;20.33;17.38;;;11.70;99.90;;;;;;5056271;28;20466;-66
2022/12/10 19:02:11;;;;;;;18.58;15.55;;;11.40;99.90;;;;;;5056151;28;20016;-66
2022/12/10 19:04:37;;;;;;;12.98;10.73;;;11.40;99.90;;;;;;5073811;28;20021;-66
2022/12/10 19:07:03;;;;;;;14.38;8.75;;;11.20;99.90;;;;;;5056005;28;20050;-66
2022/12/10 19:09:29;;;;;;;14.43;10.27;;;11.20;99.90;;;;;;5056067;28;20025;-66
2022/12/10 19:11:54;;;;;;;16.58;10.48;;;10.90;99.90;;;;;;5073914;28;20024;-66
2022/12/10 19:14:22;;;;;;;8.20;6.28;;;10.70;99.90;;;;;;5073669;28;20048;-66
2022/12/10 19:16:49;;;;;;;7.45;6.00;;;10.40;99.90;;;;;;5055739;28;20036;-66
2022/12/10 19:19:16;;;;;;;5.15;3.67;;;10.40;99.90;;;;;;5055685;28;20021;-66
2022/12/10 19:21:43;;;;;;;4.63;3.80;;;10.50;99.90;;;;;;5073612;28;20029;-66
2022/12/10 19:24:10;;;;;;;3.33;2.90;;;10.30;99.90;;;;;;5055730;28;20032;-65
2022/12/10 19:26:38;;;;;;;4.03;3.42;;;10.10;99.90;;;;;;5073587;28;20031;-66
2022/12/10 19:29:21;;;;;;;3.65;2.90;;;10.10;99.90;;;;;;5073548;28;20016;-66
2022/12/10 19:31:48;;;;;;;3.80;3.28;;;10.20;99.90;;;;;;5073548;28;20027;-66
2022/12/10 19:34:15;;;;;;;5.63;4.38;;;10.20;99.90;;;;;;5055372;28;20043;-66
2022/12/10 19:36:42;;;;;;;2.45;2.13;;;10.10;99.90;;;;;;5055455;28;20035;-66
2022/12/10 19:39:19;;;;;;;1.90;1.45;;;9.90;99.90;;;;;;5073556;28;20066;-67
2022/12/10 19:41:45;;;;;;;1.30;1.20;;;9.70;99.90;;;;;;5055509;28;20063;-66
2022/12/10 19:44:10;;;;;;;1.25;0.93;;;9.60;99.90;;;;;;5073404;28;20052;-67
2022/12/10 19:46:36;;;;;;;0.73;0.65;;;9.50;99.90;;;;;;5055376;28;20063;-66
2022/12/10 19:49:02;;;;;;;1.20;0.80;;;9.50;99.90;;;;;;5055161;28;20078;-66
2022/12/10 19:51:28;;;;;;;1.33;1.00;;;9.60;99.90;;;;;;5055140;28;20024;-66
2022/12/10 19:53:53;;;;;;;1.58;0.93;;;9.80;99.90;;;;;;5073403;28;20017;-66
2022/12/10 19:56:22;;;;;;;1.55;1.20;;;9.70;99.90;;;;;;5072807;28;20041;-67
2022/12/10 19:58:52;;;;;;;2.25;1.70;;;9.60;99.90;;;;;;5055340;28;20024;-66
2022/12/10 20:01:18;;;;;;;2.05;1.35;;;9.70;99.90;;;;;;5073314;28;20024;-66
2022/12/10 20:03:44;;;;;;;2.55;2.00;;;9.80;99.90;;;;;;5072982;28;20024;-66
2022/12/10 20:06:14;;;;;;;3.05;2.60;;;9.90;99.90;;;;;;5073277;28;20355;-66
2022/12/10 20:08:40;;;;;;;2.20;1.90;;;10.00;99.90;;;;;;5073294;28;20021;-66
2022/12/10 20:11:06;;;;;;;2.35;1.88;;;10.00;99.90;;;;;;5055118;28;20031;-66
2022/12/10 20:13:31;;;;;;;3.38;1.50;;;10.00;99.90;;;;;;5073186;28;20020;-66
2022/12/10 20:15:57;;;;;;;1.63;1.33;;;9.80;99.90;;;;;;5055031;28;20389;-66
2022/12/10 20:18:23;;;;;;;1.20;1.10;;;9.60;99.90;;;;;;5072885;28;20047;-66
2022/12/10 20:20:49;;;;;;;1.02;0.93;;;9.50;99.90;;;;;;5073203;28;20024;-68
2022/12/10 20:23:14;;;;;;;1.05;0.93;;;9.60;99.90;;;;;;5073074;28;20027;-66
2022/12/10 20:25:44;;;;;;;1.10;0.77;;;9.60;99.90;;;;;;5054960;28;20086;-69
2022/12/10 20:28:14;;;;;;;1.33;0.68;;;9.60;99.90;;;;;;5073004;28;20028;-67
2022/12/10 20:30:40;;;;;;;1.00;0.75;;;9.60;99.90;;;;;;5055101;28;20020;-66
2022/12/10 20:33:06;;;;;;;1.20;0.90;;;9.70;99.90;;;;;;5054743;28;20048;-66
2022/12/10 20:35:32;;;;;;;1.23;1.10;;;9.70;99.90;;;;;;5073005;28;20075;-66
2022/12/10 20:37:57;;;;;;;1.48;0.98;;;9.70;99.90;;;;;;5072752;28;20488;-66
2022/12/10 20:40:24;;;;;;;1.63;1.00;;;9.70;99.90;;;;;;5072856;28;20056;-66
2022/12/10 20:42:50;;;;;;;1.20;1.10;;;9.70;99.90;;;;;;5072817;28;20024;-66
2022/12/10 20:45:16;;;;;;;1.13;0.95;;;9.70;99.90;;;;;;5054910;28;20032;-66
2022/12/10 20:47:43;;;;;;;1.80;1.45;;;9.70;99.90;;;;;;5054791;28;20031;-66
2022/12/10 20:50:14;;;;;;;1.55;1.10;;;9.80;99.90;;;;;;5072736;28;20025;-66
2022/12/10 20:52:40;;;;;;;1.92;1.40;;;9.80;99.90;;;;;;5072802;28;20067;-67
2022/12/10 20:55:06;;;;;;;1.73;1.33;;;9.80;99.90;;;;;;5072792;28;20409;-66
2022/12/10 20:57:32;;;;;;;5.03;2.65;;;9.70;99.90;;;;;;5072358;28;20044;-66
2022/12/10 20:59:58;;;;;;;4.90;2.63;;;9.50;99.90;;;;;;5072673;28;20017;-66
2022/12/10 21:02:24;;;;;;;3.42;2.40;;;9.40;99.90;;;;;;5054899;28;20023;-66
2022/12/10 21:04:50;;;;;;;2.70;2.25;;;9.30;99.90;;;;;;5074780;28;20101;-66